sensor_id;sensor_type;location;lat;lon;timestamp;pressure;altitude;pressure_sealevel;temperature;humidity
41222;BME280;26952;42.884;23.918;2023-04-27T00:01:16;95505.88;;;9.55;62.95
41222;BME280;26952;42.884;23.918;2023-04-27T00:03:42;95517.75;;;9.59;62.76
41222;BME280;26952;42.884;23.918;2023-04-27T00:06:07;95512.53;;;9.51;62.62
41222;BME280;26952;42.884;23.918;2023-04-27T00:08:34;95492.31;;;9.28;64.57
41222;BME280;26952;42.884;23.918;2023-04-27T00:10:59;95481.63;;;9.21;62.62
41222;BME280;26952;42.884;23.918;2023-04-27T00:13:25;95503.84;;;9.35;63.32
41222;BME280;26952;42.884;23.918;2023-04-27T00:15:51;95534.63;;;9.50;63.48
41222;BME280;26952;42.884;23.918;2023-04-27T00:18:17;95511.25;;;9.39;62.61
41222;BME280;26952;42.884;23.918;2023-04-27T00:20:42;95527.06;;;9.47;64.31
41222;BME280;26952;42.884;23.918;2023-04-27T00:23:08;95519.84;;;9.41;63.69
41222;BME280;26952;42.884;23.918;2023-04-27T00:25:34;95528.69;;;9.48;63.25
41222;BME280;26952;42.884;23.918;2023-04-27T00:27:59;95517.41;;;9.32;62.97
41222;BME280;26952;42.884;23.918;2023-04-27T00:30:25;95450.09;;;8.97;63.10
41222;BME280;26952;42.884;23.918;2023-04-27T00:32:50;95515.31;;;9.19;65.37
41222;BME280;26952;42.884;23.918;2023-04-27T00:35:15;95542.13;;;9.39;67.93
41222;BME280;26952;42.884;23.918;2023-04-27T00:37:41;95527.31;;;9.30;64.26
41222;BME280;26952;42.884;23.918;2023-04-27T00:40:07;95458.03;;;8.89;62.44
41222;BME280;26952;42.884;23.918;2023-04-27T00:42:34;95516.09;;;9.28;66.61
41222;BME280;26952;42.884;23.918;2023-04-27T00:44:59;95531.78;;;9.29;64.88
41222;BME280;26952;42.884;23.918;2023-04-27T00:47:25;95529.31;;;9.28;62.99
41222;BME280;26952;42.884;23.918;2023-04-27T00:49:51;95522.03;;;9.30;62.95
41222;BME280;26952;42.884;23.918;2023-04-27T00:52:17;95508.56;;;9.17;63.63
41222;BME280;26952;42.884;23.918;2023-04-27T00:54:43;95526.19;;;9.24;63.73
41222;BME280;26952;42.884;23.918;2023-04-27T00:57:09;95531.78;;;9.29;62.57
41222;BME280;26952;42.884;23.918;2023-04-27T00:59:34;95515.97;;;9.21;63.35
41222;BME280;26952;42.884;23.918;2023-04-27T01:02:00;95518.69;;;9.05;63.09
41222;BME280;26952;42.884;23.918;2023-04-27T01:04:26;95536.13;;;9.22;63.12
41222;BME280;26952;42.884;23.918;2023-04-27T01:06:53;95506.34;;;8.98;64.98
41222;BME280;26952;42.884;23.918;2023-04-27T01:09:19;95534.09;;;9.24;62.16
41222;BME280;26952;42.884;23.918;2023-04-27T01:11:47;95526.88;;;9.18;62.97
41222;BME280;26952;42.884;23.918;2023-04-27T01:14:12;95516.84;;;9.14;64.34
41222;BME280;26952;42.884;23.918;2023-04-27T01:16:38;95544.31;;;9.27;67.41
41222;BME280;26952;42.884;23.918;2023-04-27T01:19:06;95551.06;;;9.38;65.35
41222;BME280;26952;42.884;23.918;2023-04-27T01:21:31;95539.03;;;9.27;64.17
41222;BME280;26952;42.884;23.918;2023-04-27T01:23:57;95532.13;;;9.26;62.89
41222;BME280;26952;42.884;23.918;2023-04-27T01:26:22;95537.75;;;9.23;64.06
41222;BME280;26952;42.884;23.918;2023-04-27T01:28:48;95550.47;;;9.20;63.56
41222;BME280;26952;42.884;23.918;2023-04-27T01:31:13;95535.31;;;9.14;63.20
41222;BME280;26952;42.884;23.918;2023-04-27T01:33:40;95553.59;;;9.23;64.24
41222;BME280;26952;42.884;23.918;2023-04-27T01:36:06;95528.06;;;9.16;65.13
41222;BME280;26952;42.884;23.918;2023-04-27T01:38:32;95543.19;;;9.22;67.98
41222;BME280;26952;42.884;23.918;2023-04-27T01:40:58;95552.94;;;9.21;66.27
41222;BME280;26952;42.884;23.918;2023-04-27T01:43:28;95516.88;;;9.06;68.36
41222;BME280;26952;42.884;23.918;2023-04-27T01:45:53;95538.44;;;9.17;69.20
41222;BME280;26952;42.884;23.918;2023-04-27T01:48:19;95554.06;;;9.27;66.58
41222;BME280;26952;42.884;23.918;2023-04-27T01:50:44;95543.59;;;9.11;68.21
41222;BME280;26952;42.884;23.918;2023-04-27T01:53:10;95536.47;;;9.11;67.62
41222;BME280;26952;42.884;23.918;2023-04-27T01:55:35;95531.22;;;9.03;65.20
41222;BME280;26952;42.884;23.918;2023-04-27T01:58:01;95535.63;;;9.19;67.93
41222;BME280;26952;42.884;23.918;2023-04-27T02:00:26;95557.34;;;9.29;70.61
41222;BME280;26952;42.884;23.918;2023-04-27T02:02:52;95534.53;;;9.05;68.12
41222;BME280;26952;42.884;23.918;2023-04-27T02:05:18;95478.38;;;8.73;66.25
41222;BME280;26952;42.884;23.918;2023-04-27T02:07:44;95515.75;;;8.92;67.70
41222;BME280;26952;42.884;23.918;2023-04-27T02:10:10;95484.00;;;8.70;67.43
41222;BME280;26952;42.884;23.918;2023-04-27T02:12:35;95546.41;;;9.09;65.97
41222;BME280;26952;42.884;23.918;2023-04-27T02:15:01;95526.16;;;8.94;64.54
41222;BME280;26952;42.884;23.918;2023-04-27T02:17:27;95523.72;;;8.76;65.94
41222;BME280;26952;42.884;23.918;2023-04-27T02:19:53;95526.50;;;8.91;64.12
41222;BME280;26952;42.884;23.918;2023-04-27T02:22:19;95541.78;;;9.03;68.19
41222;BME280;26952;42.884;23.918;2023-04-27T02:24:45;95553.66;;;9.07;67.83
41222;BME280;26952;42.884;23.918;2023-04-27T02:27:10;95521.25;;;8.83;65.67
41222;BME280;26952;42.884;23.918;2023-04-27T02:29:35;95556.81;;;9.03;66.34
41222;BME280;26952;42.884;23.918;2023-04-27T02:32:06;95543.31;;;8.98;65.67
41222;BME280;26952;42.884;23.918;2023-04-27T02:34:31;95534.22;;;9.00;66.09
41222;BME280;26952;42.884;23.918;2023-04-27T02:36:57;95538.81;;;8.98;67.18
41222;BME280;26952;42.884;23.918;2023-04-27T02:39:23;95565.03;;;9.08;64.50
41222;BME280;26952;42.884;23.918;2023-04-27T02:41:48;95550.38;;;8.97;68.88
41222;BME280;26952;42.884;23.918;2023-04-27T02:44:13;95553.25;;;8.80;67.12
41222;BME280;26952;42.884;23.918;2023-04-27T02:46:39;95557.00;;;8.85;70.20
41222;BME280;26952;42.884;23.918;2023-04-27T02:49:04;95560.34;;;8.79;68.43
41222;BME280;26952;42.884;23.918;2023-04-27T02:51:30;95551.44;;;8.80;69.23
41222;BME280;26952;42.884;23.918;2023-04-27T02:53:55;95543.53;;;8.80;70.06
41222;BME280;26952;42.884;23.918;2023-04-27T02:56:20;95564.06;;;9.01;68.88
41222;BME280;26952;42.884;23.918;2023-04-27T02:58:46;95553.03;;;8.97;67.80
41222;BME280;26952;42.884;23.918;2023-04-27T03:01:14;95560.63;;;8.92;66.98
41222;BME280;26952;42.884;23.918;2023-04-27T03:03:39;95562.59;;;8.90;67.35
41222;BME280;26952;42.884;23.918;2023-04-27T03:06:05;95579.91;;;9.01;67.80
41222;BME280;26952;42.884;23.918;2023-04-27T03:08:31;95553.06;;;8.81;68.77
41222;BME280;26952;42.884;23.918;2023-04-27T03:10:56;95590.66;;;8.91;69.80
41222;BME280;26952;42.884;23.918;2023-04-27T03:13:22;95565.13;;;8.76;74.32
41222;BME280;26952;42.884;23.918;2023-04-27T03:15:47;95583.88;;;8.89;75.08
41222;BME280;26952;42.884;23.918;2023-04-27T03:18:13;95546.19;;;8.64;79.25
41222;BME280;26952;42.884;23.918;2023-04-27T03:20:38;95572.22;;;8.83;79.27
41222;BME280;26952;42.884;23.918;2023-04-27T03:23:04;95568.56;;;8.84;77.39
41222;BME280;26952;42.884;23.918;2023-04-27T03:25:29;95598.06;;;8.96;78.11
41222;BME280;26952;42.884;23.918;2023-04-27T03:27:54;95577.16;;;8.86;79.60
41222;BME280;26952;42.884;23.918;2023-04-27T03:30:20;95566.13;;;8.75;80.33
41222;BME280;26952;42.884;23.918;2023-04-27T03:32:45;95578.47;;;8.74;76.55
41222;BME280;26952;42.884;23.918;2023-04-27T03:35:11;95570.75;;;8.65;77.95
41222;BME280;26952;42.884;23.918;2023-04-27T03:37:36;95592.69;;;8.73;84.93
41222;BME280;26952;42.884;23.918;2023-04-27T03:40:02;95584.44;;;8.68;87.98
41222;BME280;26952;42.884;23.918;2023-04-27T03:42:31;95537.03;;;8.28;86.97
41222;BME280;26952;42.884;23.918;2023-04-27T03:45:04;95577.22;;;8.54;81.90
41222;BME280;26952;42.884;23.918;2023-04-27T03:47:30;95549.88;;;8.31;81.24
41222;BME280;26952;42.884;23.918;2023-04-27T03:49:56;95579.53;;;8.49;78.98
41222;BME280;26952;42.884;23.918;2023-04-27T03:52:21;95606.56;;;8.59;74.61
41222;BME280;26952;42.884;23.918;2023-04-27T03:54:47;95592.69;;;8.57;67.88
41222;BME280;26952;42.884;23.918;2023-04-27T03:57:12;95602.09;;;8.60;73.38
41222;BME280;26952;42.884;23.918;2023-04-27T03:59:37;95606.22;;;8.62;77.03
41222;BME280;26952;42.884;23.918;2023-04-27T04:02:03;95595.34;;;8.33;76.54
41222;BME280;26952;42.884;23.918;2023-04-27T04:04:29;95605.25;;;8.39;80.78
41222;BME280;26952;42.884;23.918;2023-04-27T04:06:55;95595.81;;;8.44;83.99
41222;BME280;26952;42.884;23.918;2023-04-27T04:09:20;95603.59;;;8.54;83.75
41222;BME280;26952;42.884;23.918;2023-04-27T04:11:45;95607.53;;;8.42;87.71
41222;BME280;26952;42.884;23.918;2023-04-27T04:14:11;95587.44;;;8.41;86.83
41222;BME280;26952;42.884;23.918;2023-04-27T04:16:36;95606.41;;;8.53;84.85
41222;BME280;26952;42.884;23.918;2023-04-27T04:19:02;95615.59;;;8.65;86.66
41222;BME280;26952;42.884;23.918;2023-04-27T04:21:27;95614.78;;;8.56;91.26
41222;BME280;26952;42.884;23.918;2023-04-27T04:23:52;95587.75;;;8.54;89.55
41222;BME280;26952;42.884;23.918;2023-04-27T04:26:18;95613.13;;;8.63;90.51
41222;BME280;26952;42.884;23.918;2023-04-27T04:28:44;95638.34;;;8.66;84.65
41222;BME280;26952;42.884;23.918;2023-04-27T04:31:10;95615.13;;;8.45;87.37
41222;BME280;26952;42.884;23.918;2023-04-27T04:33:35;95626.66;;;8.52;87.31
41222;BME280;26952;42.884;23.918;2023-04-27T04:36:04;95636.22;;;8.69;87.30
41222;BME280;26952;42.884;23.918;2023-04-27T04:38:29;95638.50;;;8.72;90.33
41222;BME280;26952;42.884;23.918;2023-04-27T04:40:55;95639.00;;;8.76;89.83
41222;BME280;26952;42.884;23.918;2023-04-27T04:43:20;95621.03;;;8.71;90.40
41222;BME280;26952;42.884;23.918;2023-04-27T04:45:46;95628.59;;;8.82;90.57
41222;BME280;26952;42.884;23.918;2023-04-27T04:48:13;95639.81;;;8.92;90.48
41222;BME280;26952;42.884;23.918;2023-04-27T04:50:39;95612.94;;;8.73;89.51
41222;BME280;26952;42.884;23.918;2023-04-27T04:53:06;95592.69;;;8.65;90.08
41222;BME280;26952;42.884;23.918;2023-04-27T04:55:31;95650.50;;;9.07;85.94
41222;BME280;26952;42.884;23.918;2023-04-27T04:57:57;95647.38;;;9.03;84.65
41222;BME280;26952;42.884;23.918;2023-04-27T05:00:22;95590.22;;;8.72;83.64
41222;BME280;26952;42.884;23.918;2023-04-27T05:02:47;95644.53;;;9.13;82.65
41222;BME280;26952;42.884;23.918;2023-04-27T05:05:13;95658.22;;;9.24;83.14
41222;BME280;26952;42.884;23.918;2023-04-27T05:07:38;95667.41;;;9.44;86.98
41222;BME280;26952;42.884;23.918;2023-04-27T05:10:04;95652.72;;;9.42;86.80
41222;BME280;26952;42.884;23.918;2023-04-27T05:12:29;95613.81;;;9.28;87.42
41222;BME280;26952;42.884;23.918;2023-04-27T05:14:55;95655.16;;;9.59;87.13
41222;BME280;26952;42.884;23.918;2023-04-27T05:17:20;95653.09;;;9.69;83.74
41222;BME280;26952;42.884;23.918;2023-04-27T05:19:45;95663.78;;;9.84;80.57
41222;BME280;26952;42.884;23.918;2023-04-27T05:22:11;95611.50;;;9.63;77.70
41222;BME280;26952;42.884;23.918;2023-04-27T05:24:37;95655.13;;;9.98;77.42
41222;BME280;26952;42.884;23.918;2023-04-27T05:27:02;95694.38;;;10.17;74.78
41222;BME280;26952;42.884;23.918;2023-04-27T05:29:28;95654.81;;;9.93;66.33
41222;BME280;26952;42.884;23.918;2023-04-27T05:31:53;95659.59;;;9.98;63.44
41222;BME280;26952;42.884;23.918;2023-04-27T05:34:19;95675.22;;;10.15;66.03
41222;BME280;26952;42.884;23.918;2023-04-27T05:36:44;95690.47;;;10.36;68.07
41222;BME280;26952;42.884;23.918;2023-04-27T05:39:11;95658.13;;;10.26;60.19
41222;BME280;26952;42.884;23.918;2023-04-27T05:41:37;95682.00;;;10.40;60.29
41222;BME280;26952;42.884;23.918;2023-04-27T05:44:02;95692.31;;;10.58;61.81
41222;BME280;26952;42.884;23.918;2023-04-27T05:46:28;95684.97;;;10.68;60.69
41222;BME280;26952;42.884;23.918;2023-04-27T05:48:53;95668.34;;;10.74;60.05
41222;BME280;26952;42.884;23.918;2023-04-27T05:51:18;95684.56;;;10.93;56.06
41222;BME280;26952;42.884;23.918;2023-04-27T05:53:44;95687.50;;;10.98;55.12
41222;BME280;26952;42.884;23.918;2023-04-27T05:56:09;95694.00;;;10.73;54.65
41222;BME280;26952;42.884;23.918;2023-04-27T05:58:36;95675.72;;;10.64;57.90
41222;BME280;26952;42.884;23.918;2023-04-27T06:01:01;95684.84;;;10.39;52.05
41222;BME280;26952;42.884;23.918;2023-04-27T06:03:28;95692.00;;;10.30;53.87
41222;BME280;26952;42.884;23.918;2023-04-27T06:05:55;95700.41;;;10.34;52.08
41222;BME280;26952;42.884;23.918;2023-04-27T06:08:20;95684.13;;;10.45;54.40
41222;BME280;26952;42.884;23.918;2023-04-27T06:10:46;95670.19;;;10.51;54.45
41222;BME280;26952;42.884;23.918;2023-04-27T06:13:12;95703.47;;;10.90;56.20
41222;BME280;26952;42.884;23.918;2023-04-27T06:15:37;95694.94;;;10.80;51.99
41222;BME280;26952;42.884;23.918;2023-04-27T06:18:02;95713.75;;;11.08;52.12
41222;BME280;26952;42.884;23.918;2023-04-27T06:20:28;95703.88;;;11.02;52.96
41222;BME280;26952;42.884;23.918;2023-04-27T06:22:53;95676.53;;;10.87;51.71
41222;BME280;26952;42.884;23.918;2023-04-27T06:25:19;95691.66;;;10.78;51.11
41222;BME280;26952;42.884;23.918;2023-04-27T06:27:44;95626.50;;;10.10;51.92
41222;BME280;26952;42.884;23.918;2023-04-27T06:30:10;95634.38;;;10.18;52.13
41222;BME280;26952;42.884;23.918;2023-04-27T06:32:36;95710.88;;;10.72;51.93
41222;BME280;26952;42.884;23.918;2023-04-27T06:35:01;95678.59;;;10.54;51.01
41222;BME280;26952;42.884;23.918;2023-04-27T06:37:26;95703.31;;;10.69;53.53
41222;BME280;26952;42.884;23.918;2023-04-27T06:39:52;95694.72;;;10.67;52.80
41222;BME280;26952;42.884;23.918;2023-04-27T06:42:17;95690.41;;;10.89;51.22
41222;BME280;26952;42.884;23.918;2023-04-27T06:44:43;95713.84;;;11.14;52.30
41222;BME280;26952;42.884;23.918;2023-04-27T06:47:08;95704.38;;;10.97;51.89
41222;BME280;26952;42.884;23.918;2023-04-27T06:49:33;95700.34;;;10.87;51.34
41222;BME280;26952;42.884;23.918;2023-04-27T06:52:01;95709.19;;;10.57;50.06
41222;BME280;26952;42.884;23.918;2023-04-27T06:54:27;95714.66;;;10.25;50.54
41222;BME280;26952;42.884;23.918;2023-04-27T06:56:52;95726.22;;;10.32;52.08
41222;BME280;26952;42.884;23.918;2023-04-27T06:59:19;95732.22;;;10.48;53.10
41222;BME280;26952;42.884;23.918;2023-04-27T07:01:44;95701.28;;;10.49;51.06
41222;BME280;26952;42.884;23.918;2023-04-27T07:04:10;95696.22;;;10.62;52.90
41222;BME280;26952;42.884;23.918;2023-04-27T07:06:35;95714.47;;;11.02;54.05
41222;BME280;26952;42.884;23.918;2023-04-27T07:09:01;95682.97;;;11.07;50.63
41222;BME280;26952;42.884;23.918;2023-04-27T07:11:27;95708.88;;;11.34;49.33
41222;BME280;26952;42.884;23.918;2023-04-27T07:13:52;95682.59;;;10.95;48.92
41222;BME280;26952;42.884;23.918;2023-04-27T07:16:18;95704.66;;;10.65;50.08
41222;BME280;26952;42.884;23.918;2023-04-27T07:18:43;95705.28;;;10.45;51.20
41222;BME280;26952;42.884;23.918;2023-04-27T07:21:09;95718.34;;;10.69;49.73
41222;BME280;26952;42.884;23.918;2023-04-27T07:23:35;95708.84;;;10.60;50.54
41222;BME280;26952;42.884;23.918;2023-04-27T07:26:00;95716.09;;;11.03;51.44
41222;BME280;26952;42.884;23.918;2023-04-27T07:28:27;95708.28;;;11.24;48.15
41222;BME280;26952;42.884;23.918;2023-04-27T07:30:53;95718.38;;;11.58;48.74
41222;BME280;26952;42.884;23.918;2023-04-27T07:33:18;95703.88;;;11.54;48.11
41222;BME280;26952;42.884;23.918;2023-04-27T07:35:44;95703.63;;;11.78;48.12
41222;BME280;26952;42.884;23.918;2023-04-27T07:38:09;95697.19;;;12.01;47.38
41222;BME280;26952;42.884;23.918;2023-04-27T07:40:36;95707.28;;;12.41;46.16
41222;BME280;26952;42.884;23.918;2023-04-27T07:43:01;95705.13;;;12.51;47.34
41222;BME280;26952;42.884;23.918;2023-04-27T07:45:26;95718.22;;;12.89;45.46
41222;BME280;26952;42.884;23.918;2023-04-27T07:47:57;95715.66;;;12.81;44.85
41222;BME280;26952;42.884;23.918;2023-04-27T07:50:27;95689.47;;;12.99;44.68
41222;BME280;26952;42.884;23.918;2023-04-27T07:52:54;95684.63;;;13.57;43.48
41222;BME280;26952;42.884;23.918;2023-04-27T07:55:20;95676.53;;;14.13;46.29
41222;BME280;26952;42.884;23.918;2023-04-27T07:57:53;95645.53;;;14.33;42.33
41222;BME280;26952;42.884;23.918;2023-04-27T08:00:19;95708.34;;;14.81;41.68
41222;BME280;26952;42.884;23.918;2023-04-27T08:02:46;95703.91;;;14.34;40.53
41222;BME280;26952;42.884;23.918;2023-04-27T08:05:11;95687.09;;;14.34;42.05
41222;BME280;26952;42.884;23.918;2023-04-27T08:07:37;95686.50;;;14.38;43.28
41222;BME280;26952;42.884;23.918;2023-04-27T08:10:03;95709.00;;;14.29;40.04
41222;BME280;26952;42.884;23.918;2023-04-27T08:12:28;95698.91;;;13.22;43.81
41222;BME280;26952;42.884;23.918;2023-04-27T08:14:54;95689.59;;;13.12;44.43
41222;BME280;26952;42.884;23.918;2023-04-27T08:17:20;95708.38;;;13.31;43.38
41222;BME280;26952;42.884;23.918;2023-04-27T08:19:48;95697.19;;;13.42;44.73
41222;BME280;26952;42.884;23.918;2023-04-27T08:22:13;95680.66;;;13.40;42.88
41222;BME280;26952;42.884;23.918;2023-04-27T08:24:39;95696.19;;;13.71;42.45
41222;BME280;26952;42.884;23.918;2023-04-27T08:27:05;95689.47;;;12.99;44.67
41222;BME280;26952;42.884;23.918;2023-04-27T08:29:30;95712.56;;;13.40;42.68
41222;BME280;26952;42.884;23.918;2023-04-27T08:31:58;95712.69;;;13.60;48.47
41222;BME280;26952;42.884;23.918;2023-04-27T08:34:24;95706.13;;;13.90;42.31
41222;BME280;26952;42.884;23.918;2023-04-27T08:36:49;95702.50;;;13.15;42.63
41222;BME280;26952;42.884;23.918;2023-04-27T08:39:15;95698.47;;;13.19;44.27
41222;BME280;26952;42.884;23.918;2023-04-27T08:41:42;95695.56;;;13.41;42.43
41222;BME280;26952;42.884;23.918;2023-04-27T08:44:08;95712.00;;;13.24;43.46
41222;BME280;26952;42.884;23.918;2023-04-27T08:46:35;95710.44;;;13.36;43.73
41222;BME280;26952;42.884;23.918;2023-04-27T08:49:01;95684.59;;;13.85;43.64
41222;BME280;26952;42.884;23.918;2023-04-27T08:51:26;95695.47;;;13.56;42.72
41222;BME280;26952;42.884;23.918;2023-04-27T08:53:54;95690.63;;;13.11;44.33
41222;BME280;26952;42.884;23.918;2023-04-27T08:56:21;95698.31;;;12.64;44.16
41222;BME280;26952;42.884;23.918;2023-04-27T08:58:48;95653.38;;;12.62;44.39
41222;BME280;26952;42.884;23.918;2023-04-27T09:01:13;95696.13;;;12.88;46.80
41222;BME280;26952;42.884;23.918;2023-04-27T09:03:39;95677.03;;;12.21;45.33
41222;BME280;26952;42.884;23.918;2023-04-27T09:06:05;95699.69;;;12.38;46.13
41222;BME280;26952;42.884;23.918;2023-04-27T09:08:48;95699.47;;;12.54;46.20
41222;BME280;26952;42.884;23.918;2023-04-27T09:11:15;95685.25;;;12.83;46.68
41222;BME280;26952;42.884;23.918;2023-04-27T09:13:42;95697.78;;;13.10;45.58
41222;BME280;26952;42.884;23.918;2023-04-27T09:16:11;95670.41;;;13.44;48.12
41222;BME280;26952;42.884;23.918;2023-04-27T09:18:40;95683.06;;;14.51;45.20
41222;BME280;26952;42.884;23.918;2023-04-27T09:21:06;95665.81;;;14.40;45.02
41222;BME280;26952;42.884;23.918;2023-04-27T09:23:33;95687.19;;;14.66;43.24
41222;BME280;26952;42.884;23.918;2023-04-27T09:26:04;95681.03;;;14.66;42.87
41222;BME280;26952;42.884;23.918;2023-04-27T09:28:33;95679.00;;;14.14;41.76
41222;BME280;26952;42.884;23.918;2023-04-27T09:31:01;95680.47;;;13.76;41.48
41222;BME280;26952;42.884;23.918;2023-04-27T09:33:27;95708.72;;;13.01;44.08
41222;BME280;26952;42.884;23.918;2023-04-27T09:35:55;95679.88;;;12.77;44.73
41222;BME280;26952;42.884;23.918;2023-04-27T09:38:21;95674.09;;;12.73;44.03
41222;BME280;26952;42.884;23.918;2023-04-27T09:40:48;95664.94;;;13.18;44.33
41222;BME280;26952;42.884;23.918;2023-04-27T09:43:14;95671.69;;;13.48;43.07
41222;BME280;26952;42.884;23.918;2023-04-27T09:45:40;95647.09;;;12.91;45.05
41222;BME280;26952;42.884;23.918;2023-04-27T09:48:06;95665.81;;;12.83;45.23
41222;BME280;26952;42.884;23.918;2023-04-27T09:50:42;95597.91;;;12.74;44.79
41222;BME280;26952;42.884;23.918;2023-04-27T09:53:11;95664.16;;;13.24;45.94
41222;BME280;26952;42.884;23.918;2023-04-27T09:56:26;95670.41;;;13.44;43.67
41222;BME280;26952;42.884;23.918;2023-04-27T10:03:54;95682.41;;;13.06;44.51
41222;BME280;26952;42.884;23.918;2023-04-27T10:09:02;95664.44;;;13.63;41.60
41222;BME280;26952;42.884;23.918;2023-04-27T10:11:38;95673.91;;;13.78;42.05
41222;BME280;26952;42.884;23.918;2023-04-27T10:14:09;95651.50;;;14.01;41.83
41222;BME280;26952;42.884;23.918;2023-04-27T10:19:16;95632.47;;;13.97;41.01
41222;BME280;26952;42.884;23.918;2023-04-27T10:21:56;95665.34;;;13.83;42.04
41222;BME280;26952;42.884;23.918;2023-04-27T10:24:50;95674.91;;;14.12;41.77
41222;BME280;26952;42.884;23.918;2023-04-27T10:27:18;95670.31;;;14.40;42.19
41222;BME280;26952;42.884;23.918;2023-04-27T10:29:49;95676.97;;;14.16;40.14
41222;BME280;26952;42.884;23.918;2023-04-27T10:32:20;95679.81;;;14.62;41.39
41222;BME280;26952;42.884;23.918;2023-04-27T10:34:47;95629.06;;;14.23;39.44
41222;BME280;26952;42.884;23.918;2023-04-27T10:37:14;95662.03;;;14.15;41.08
41222;BME280;26952;42.884;23.918;2023-04-27T10:39:41;95679.00;;;14.14;41.26
41222;BME280;26952;42.884;23.918;2023-04-27T10:42:07;95634.25;;;13.83;40.66
41222;BME280;26952;42.884;23.918;2023-04-27T10:44:34;95661.13;;;13.61;41.25
41222;BME280;26952;42.884;23.918;2023-04-27T10:47:14;95653.81;;;13.08;42.49
41222;BME280;26952;42.884;23.918;2023-04-27T10:49:40;95659.34;;;13.68;43.57
41222;BME280;26952;42.884;23.918;2023-04-27T10:52:06;95675.94;;;14.84;42.37
41222;BME280;26952;42.884;23.918;2023-04-27T10:54:32;95680.91;;;15.06;41.14
41222;BME280;26952;42.884;23.918;2023-04-27T10:57:08;95645.22;;;15.40;41.57
41222;BME280;26952;42.884;23.918;2023-04-27T10:59:47;95660.00;;;15.49;40.36
41222;BME280;26952;42.884;23.918;2023-04-27T11:02:14;95659.28;;;14.49;38.79
41222;BME280;26952;42.884;23.918;2023-04-27T11:04:39;95684.66;;;13.98;40.58
41222;BME280;26952;42.884;23.918;2023-04-27T11:07:07;95635.84;;;13.78;40.25
41222;BME280;26952;42.884;23.918;2023-04-27T11:09:38;95610.78;;;13.59;41.24
41222;BME280;26952;42.884;23.918;2023-04-27T11:12:10;95657.00;;;14.40;40.06
41222;BME280;26952;42.884;23.918;2023-04-27T11:14:36;95644.50;;;14.40;37.32
41222;BME280;26952;42.884;23.918;2023-04-27T11:17:03;95647.25;;;14.73;45.28
41222;BME280;26952;42.884;23.918;2023-04-27T11:19:28;95672.28;;;15.30;40.95
41222;BME280;26952;42.884;23.918;2023-04-27T11:22:04;95652.59;;;15.64;39.04
41222;BME280;26952;42.884;23.918;2023-04-27T11:24:31;95651.03;;;16.01;38.82
41222;BME280;26952;42.884;23.918;2023-04-27T11:26:56;95651.59;;;16.22;35.95
41222;BME280;26952;42.884;23.918;2023-04-27T11:29:22;95664.41;;;16.01;33.98
41222;BME280;26952;42.884;23.918;2023-04-27T11:31:49;95645.00;;;15.55;35.96
41222;BME280;26952;42.884;23.918;2023-04-27T11:34:24;95635.78;;;15.24;37.31
41222;BME280;26952;42.884;23.918;2023-04-27T11:39:31;95652.69;;;14.32;38.13
41222;BME280;26952;42.884;23.918;2023-04-27T11:41:57;95687.09;;;13.93;39.12
41222;BME280;26952;42.884;23.918;2023-04-27T11:44:25;95609.38;;;13.29;38.71
41222;BME280;26952;42.884;23.918;2023-04-27T11:46:51;95649.59;;;13.47;40.52
41222;BME280;26952;42.884;23.918;2023-04-27T11:49:17;95654.47;;;13.44;39.88
41222;BME280;26952;42.884;23.918;2023-04-27T11:51:44;95677.78;;;13.42;39.36
41222;BME280;26952;42.884;23.918;2023-04-27T11:54:10;95679.03;;;13.46;40.48
41222;BME280;26952;42.884;23.918;2023-04-27T11:56:41;95665.69;;;13.73;38.24
41222;BME280;26952;42.884;23.918;2023-04-27T11:59:27;95685.44;;;13.85;37.30
41222;BME280;26952;42.884;23.918;2023-04-27T12:01:52;95682.56;;;13.25;37.85
41222;BME280;26952;42.884;23.918;2023-04-27T12:04:17;95656.53;;;13.42;39.75
41222;BME280;26952;42.884;23.918;2023-04-27T12:06:43;95683.50;;;13.39;40.06
41222;BME280;26952;42.884;23.918;2023-04-27T12:09:08;95691.88;;;13.15;40.25
41222;BME280;26952;42.884;23.918;2023-04-27T12:11:34;95659.72;;;13.31;40.38
41222;BME280;26952;42.884;23.918;2023-04-27T12:13:59;95673.03;;;13.71;40.50
41222;BME280;26952;42.884;23.918;2023-04-27T12:16:25;95673.16;;;13.91;42.03
41222;BME280;26952;42.884;23.918;2023-04-27T12:18:50;95621.41;;;13.93;40.08
41222;BME280;26952;42.884;23.918;2023-04-27T12:21:16;95659.84;;;14.32;37.79
41222;BME280;26952;42.884;23.918;2023-04-27T12:23:42;95676.75;;;14.71;35.84
41222;BME280;26952;42.884;23.918;2023-04-27T12:26:08;95637.75;;;14.31;35.17
41222;BME280;26952;42.884;23.918;2023-04-27T12:28:33;95677.94;;;14.62;36.60
41222;BME280;26952;42.884;23.918;2023-04-27T12:31:01;95664.28;;;14.78;37.32
41222;BME280;26952;42.884;23.918;2023-04-27T12:33:28;95684.34;;;14.68;36.64
41222;BME280;26952;42.884;23.918;2023-04-27T12:35:53;95682.47;;;14.55;38.01
41222;BME280;26952;42.884;23.918;2023-04-27T12:38:18;95663.19;;;14.06;38.41
41222;BME280;26952;42.884;23.918;2023-04-27T12:40:44;95668.00;;;13.83;39.00
41222;BME280;26952;42.884;23.918;2023-04-27T12:43:09;95661.69;;;13.22;39.12
41222;BME280;26952;42.884;23.918;2023-04-27T12:45:37;95667.22;;;13.21;40.73
41222;BME280;26952;42.884;23.918;2023-04-27T12:48:02;95689.19;;;13.36;42.33
41222;BME280;26952;42.884;23.918;2023-04-27T12:50:28;95679.50;;;13.56;40.75
41222;BME280;26952;42.884;23.918;2023-04-27T12:52:53;95681.28;;;13.21;39.76
41222;BME280;26952;42.884;23.918;2023-04-27T12:55:18;95691.38;;;13.53;40.94
41222;BME280;26952;42.884;23.918;2023-04-27T12:57:44;95667.47;;;13.60;39.49
41222;BME280;26952;42.884;23.918;2023-04-27T13:00:10;95639.28;;;13.72;39.95
41222;BME280;26952;42.884;23.918;2023-04-27T13:02:35;95668.66;;;13.91;40.03
41222;BME280;26952;42.884;23.918;2023-04-27T13:05:02;95686.78;;;14.16;39.56